Time;durP1;ratioP1;P1;durP2;ratioP2;P2;SDS_P1;SDS_P2;PMS_P1;PMS_P2;Temp;Humidity;BMP_temperature;BMP_pressure;BME280_temperature;BME280_humidity;BME280_pressure;Samples;Min_cycle;Max_cycle;Signal;HPM_P1;HPM_P2
2022/08/12 05:28:17;;;;;;;24.43;9.88;;;;;;;;;;1811217;79;21890;-81
2022/08/12 05:30:44;;;;;;;29.35;10.15;;;;;;;;;;1783005;80;21094;-81
2022/08/12 05:33:11;;;;;;;28.95;9.45;;;;;;;;;;1781975;80;20999;-81
2022/08/12 05:35:40;;;;;;;21.80;8.88;;;;;;;;;;1781982;80;21011;-81
2022/08/12 05:41:00;;;;;;;;;;;;;;;;;;1743389;82;21067;-81
2022/08/12 05:43:26;;;;;;;30.40;9.98;;;;;;;;;;1740990;81;20194;-80
2022/08/12 05:45:52;;;;;;;38.92;11.70;;;;;;;;;;1741896;81;21151;-81
2022/08/12 05:48:18;;;;;;;30.20;11.18;;;;;;;;;;1740273;80;20955;-80
2022/08/12 05:50:45;;;;;;;56.73;16.40;;;;;;;;;;1750588;81;21035;-81
2022/08/12 05:53:12;;;;;;;48.28;16.65;;;;;;;;;;1750654;81;21114;-81
2022/08/12 05:55:39;;;;;;;36.55;11.95;;;;;;;;;;1746768;81;21015;-81
2022/08/12 05:58:06;;;;;;;32.40;11.88;;;;;;;;;;1743474;81;21099;-81
2022/08/12 06:00:33;;;;;;;33.83;11.93;;;;;;;;;;1739998;82;21153;-81
2022/08/12 06:03:01;;;;;;;47.35;14.10;;;;;;;;;;1735699;81;21027;-80
2022/08/12 06:05:36;;;;;;;36.53;13.05;;;;;;;;;;1744897;82;21083;-81
2022/08/12 06:08:07;;;;;;;32.05;12.50;;;;;;;;;;1623755;88;21063;-81
2022/08/12 06:10:34;;;;;;;30.27;14.68;;;;;;;;;;1626364;88;21292;-81
2022/08/12 06:13:05;;;;;;;40.35;14.98;;;;;;;;;;1627374;86;21760;-82
2022/08/12 06:15:34;;;;;;;37.95;14.80;;;;;;;;;;1629589;86;21123;-84
2022/08/12 06:18:05;;;;;;;41.05;14.73;;;;;;;;;;1630454;86;21191;-84
2022/08/12 06:20:31;;;;;;;38.05;14.50;;;;;;;;;;1598989;88;21134;-81
2022/08/12 06:22:57;;;;;;;44.83;15.43;;;;;;;;;;1602481;88;22015;-82
2022/08/12 06:25:26;;;;;;;39.05;15.75;;;;;;;;;;1602662;88;20920;-81
2022/08/12 06:27:50;;;;;;;34.70;14.05;;;;;;;;;;1626262;86;21084;-81
2022/08/12 06:30:19;;;;;;;37.20;13.93;;;;;;;;;;1628065;86;20941;-80
2022/08/12 06:32:46;;;;;;;37.70;13.70;;;;;;;;;;1637683;86;21076;-82
2022/08/12 06:35:13;;;;;;;34.73;14.20;;;;;;;;;;1634383;87;21297;-80
2022/08/12 06:37:44;;;;;;;37.08;15.08;;;;;;;;;;1645652;85;21089;-81
2022/08/12 06:40:11;;;;;;;41.18;14.63;;;;;;;;;;1576650;89;21588;-77
2022/08/12 06:42:47;;;;;;;37.93;14.60;;;;;;;;;;1590015;89;21091;-75
2022/08/12 06:45:14;;;;;;;50.25;15.88;;;;;;;;;;1586580;89;21694;-75
2022/08/12 06:47:40;;;;;;;36.13;15.53;;;;;;;;;;1585817;89;21604;-76
2022/08/12 06:50:07;;;;;;;37.80;15.23;;;;;;;;;;1586738;89;21162;-75
2022/08/12 06:52:34;;;;;;;39.67;16.23;;;;;;;;;;1593522;89;21122;-76
2022/08/12 06:54:59;;;;;;;34.23;15.43;;;;;;;;;;1593073;89;21071;-76
2022/08/12 06:57:28;;;;;;;41.40;16.27;;;;;;;;;;1590140;89;21039;-75
2022/08/12 06:59:54;;;;;;;39.98;15.50;;;;;;;;;;1570713;89;21206;-75
2022/08/12 07:02:21;;;;;;;28.25;14.85;;;;;;;;;;1562927;91;21097;-75
2022/08/12 07:04:49;;;;;;;39.50;14.47;;;;;;;;;;1533786;93;21096;-75
2022/08/12 07:07:15;;;;;;;29.18;13.78;;;;;;;;;;1551428;92;21136;-75
2022/08/12 07:09:41;;;;;;;25.17;13.30;;;;;;;;;;1554793;91;21045;-76
2022/08/12 07:12:15;;;;;;;32.05;14.47;;;;;;;;;;1577168;90;21088;-75
2022/08/12 07:14:38;;;;;;;24.27;13.25;;;;;;;;;;1577394;90;21117;-76
2022/08/12 07:17:06;;;;;;;36.48;14.20;;;;;;;;;;1605445;87;20856;-75
2022/08/12 07:19:34;;;;;;;33.83;13.90;;;;;;;;;;1637223;87;21027;-78
2022/08/12 07:22:05;;;;;;;26.05;12.98;;;;;;;;;;1637317;87;21096;-78
2022/08/12 07:24:27;;;;;;;31.48;13.65;;;;;;;;;;1634175;87;21062;-78
2022/08/12 07:26:53;;;;;;;33.48;14.07;;;;;;;;;;1635275;87;20927;-77
2022/08/12 07:29:21;;;;;;;39.42;14.58;;;;;;;;;;1595780;87;21106;-78
2022/08/12 07:31:47;;;;;;;30.20;13.75;;;;;;;;;;1597338;89;21098;-80
2022/08/12 07:34:13;;;;;;;33.53;14.90;;;;;;;;;;1638997;87;20917;-78
2022/08/12 07:36:39;;;;;;;26.50;13.68;;;;;;;;;;1638559;86;21176;-78
2022/08/12 07:39:06;;;;;;;33.18;14.45;;;;;;;;;;1673094;84;21103;-79
2022/08/12 07:41:32;;;;;;;35.78;13.98;;;;;;;;;;1675680;84;21131;-79
2022/08/12 07:44:05;;;;;;;30.55;14.50;;;;;;;;;;1676887;84;22468;-78
2022/08/12 07:46:35;;;;;;;29.52;13.62;;;;;;;;;;1675756;84;21103;-81
2022/08/12 07:49:04;;;;;;;26.25;13.85;;;;;;;;;;1599411;89;21199;-80
2022/08/12 07:51:31;;;;;;;29.12;13.90;;;;;;;;;;1557052;89;20977;-79
2022/08/12 07:53:58;;;;;;;32.20;14.15;;;;;;;;;;1571466;89;21126;-78
2022/08/12 07:56:26;;;;;;;35.63;14.43;;;;;;;;;;1588798;89;21126;-78
2022/08/12 07:58:52;;;;;;;25.48;14.07;;;;;;;;;;1585858;89;21609;-78
2022/08/12 08:01:20;;;;;;;27.65;14.28;;;;;;;;;;1558444;90;21130;-78
2022/08/12 08:06:35;;;;;;;25.23;14.50;;;;;;;;;;1559785;91;21135;-78
2022/08/12 08:09:03;;;;;;;28.62;14.47;;;;;;;;;;1560604;91;21154;-82
2022/08/12 08:14:14;;;;;;;24.47;14.65;;;;;;;;;;1555161;91;21703;-77
2022/08/12 08:16:40;;;;;;;25.97;14.98;;;;;;;;;;1516965;92;20962;-81
2022/08/12 08:19:09;;;;;;;29.85;14.58;;;;;;;;;;1538745;91;21113;-77
2022/08/12 08:21:35;;;;;;;25.97;14.68;;;;;;;;;;1557742;89;21725;-79
2022/08/12 08:24:13;;;;;;;28.42;14.75;;;;;;;;;;1559266;90;21116;-80
2022/08/12 08:26:46;;;;;;;36.25;14.63;;;;;;;;;;1565129;89;21303;-74
2022/08/12 08:29:13;;;;;;;35.38;15.35;;;;;;;;;;1490449;94;21126;-81
2022/08/12 08:31:44;;;;;;;32.30;15.63;;;;;;;;;;1482846;95;21257;-78
2022/08/12 08:34:11;;;;;;;26.15;15.50;;;;;;;;;;1481329;95;21122;-79
2022/08/12 08:36:38;;;;;;;28.40;15.13;;;;;;;;;;1483651;95;21135;-80
2022/08/12 08:39:07;;;;;;;26.93;15.55;;;;;;;;;;1487291;93;22219;-76
2022/08/12 08:44:19;;;;;;;35.13;14.90;;;;;;;;;;1480049;95;21199;-79
2022/08/12 08:46:45;;;;;;;29.50;15.25;;;;;;;;;;1513548;93;21609;-79
2022/08/12 08:49:12;;;;;;;26.65;14.60;;;;;;;;;;1578628;89;21207;-79
2022/08/12 08:51:38;;;;;;;28.62;15.20;;;;;;;;;;1581624;89;21754;-78
2022/08/12 08:54:05;;;;;;;32.42;15.90;;;;;;;;;;1552193;89;21002;-78
2022/08/12 08:56:32;;;;;;;28.75;15.03;;;;;;;;;;1579971;89;21061;-84
2022/08/12 08:58:58;;;;;;;29.60;16.17;;;;;;;;;;1576122;89;21541;-79
2022/08/12 09:01:25;;;;;;;29.55;15.25;;;;;;;;;;1573231;90;21173;-80
2022/08/12 09:03:51;;;;;;;27.42;15.03;;;;;;;;;;1574708;90;22545;-79
2022/08/12 09:06:19;;;;;;;29.72;15.60;;;;;;;;;;1574442;90;21143;-81
2022/08/12 09:08:47;;;;;;;27.67;15.45;;;;;;;;;;1575306;89;21096;-80
2022/08/12 09:13:57;;;;;;;28.92;15.00;;;;;;;;;;1584645;89;21111;-79
2022/08/12 09:16:23;;;;;;;27.05;14.35;;;;;;;;;;1584826;89;21383;-78
2022/08/12 09:18:49;;;;;;;26.02;14.43;;;;;;;;;;1581568;89;21016;-81
2022/08/12 09:21:15;;;;;;;33.58;14.30;;;;;;;;;;1587897;89;21630;-79
2022/08/12 09:23:41;;;;;;;26.68;13.83;;;;;;;;;;1586833;89;20990;-79
2022/08/12 09:26:08;;;;;;;29.92;13.78;;;;;;;;;;1681741;81;21535;-81
2022/08/12 09:28:34;;;;;;;41.77;14.68;;;;;;;;;;1748855;80;21048;-78
2022/08/12 09:31:03;;;;;;;25.68;14.70;;;;;;;;;;1743317;82;21023;-80
2022/08/12 09:33:32;;;;;;;29.15;14.78;;;;;;;;;;1739309;82;21026;-80
2022/08/12 09:35:56;;;;;;;29.10;14.85;;;;;;;;;;1738686;82;21108;-78
2022/08/12 09:38:22;;;;;;;27.55;15.13;;;;;;;;;;1743183;82;20984;-84
2022/08/12 09:40:49;;;;;;;27.93;15.38;;;;;;;;;;1742893;82;21066;-79
2022/08/12 09:46:01;;;;;;;32.67;16.52;;;;;;;;;;1703202;83;21216;-78
2022/08/12 09:48:28;;;;;;;27.98;15.72;;;;;;;;;;1705296;83;21067;-78
2022/08/12 09:50:54;;;;;;;25.50;15.58;;;;;;;;;;1706589;83;20960;-75
2022/08/12 09:53:25;;;;;;;30.72;15.03;;;;;;;;;;1705268;84;21174;-79
2022/08/12 09:55:53;;;;;;;35.20;14.68;;;;;;;;;;1704908;83;21083;-80
2022/08/12 09:58:29;;;;;;;24.55;14.87;;;;;;;;;;1686994;83;21420;-78
2022/08/12 10:01:03;;;;;;;33.10;15.63;;;;;;;;;;1702445;83;21023;-82
2022/08/12 10:03:35;;;;;;;27.65;14.95;;;;;;;;;;1677529;84;21084;-80
2022/08/12 10:06:04;;;;;;;24.77;14.20;;;;;;;;;;1631809;87;21206;-78
2022/08/12 10:08:30;;;;;;;33.10;15.38;;;;;;;;;;1673929;85;21066;-80
2022/08/12 10:13:43;;;;;;;33.23;15.08;;;;;;;;;;1673694;84;21089;-78
2022/08/12 10:16:21;;;;;;;23.47;14.80;;;;;;;;;;1632238;87;21202;-77
2022/08/12 10:18:55;;;;;;;41.85;16.02;;;;;;;;;;1674200;85;21161;-80
2022/08/12 10:21:24;;;;;;;35.68;15.50;;;;;;;;;;1631986;87;21524;-79
2022/08/12 10:23:52;;;;;;;29.12;14.90;;;;;;;;;;1674111;85;21540;-82
2022/08/12 10:31:52;;;;;;;29.12;14.40;;;;;;;;;;1632107;87;21112;-81
2022/08/12 10:34:21;;;;;;;29.00;14.60;;;;;;;;;;1673789;85;21132;-79
2022/08/12 10:36:48;;;;;;;28.05;14.35;;;;;;;;;;1632289;87;21082;-77
2022/08/12 10:39:16;;;;;;;28.62;14.98;;;;;;;;;;1673845;85;21644;-81
2022/08/12 10:44:28;;;;;;;29.67;14.00;;;;;;;;;;1633691;86;21143;-77
2022/08/12 10:46:54;;;;;;;26.93;15.28;;;;;;;;;;1633607;87;21074;-81
2022/08/12 10:49:27;;;;;;;28.73;14.93;;;;;;;;;;1633485;87;21152;-80
2022/08/12 10:51:53;;;;;;;;;;;;;;;;;;1635959;87;21154;-78
2022/08/12 10:54:20;;;;;;;30.70;13.85;;;;;;;;;;1634020;87;20182;-78
2022/08/12 10:56:48;;;;;;;28.45;14.70;;;;;;;;;;1633623;87;21179;-79
2022/08/12 10:59:16;;;;;;;30.15;14.25;;;;;;;;;;1624099;85;21092;-78
2022/08/12 11:01:42;;;;;;;28.98;14.03;;;;;;;;;;1590317;87;21043;-79
2022/08/12 11:04:12;;;;;;;27.15;14.47;;;;;;;;;;1602405;89;20982;-76
2022/08/12 11:06:43;;;;;;;32.17;14.75;;;;;;;;;;1602187;88;21121;-78
2022/08/12 11:09:07;;;;;;;27.80;13.93;;;;;;;;;;1601540;89;21149;-78
2022/08/12 11:11:34;;;;;;;33.30;14.47;;;;;;;;;;1602395;89;21066;-73
2022/08/12 11:14:00;;;;;;;37.70;14.43;;;;;;;;;;1602055;89;21610;-79
2022/08/12 11:16:31;;;;;;;31.15;14.15;;;;;;;;;;1602358;89;21003;-77
2022/08/12 11:18:53;;;;;;;29.35;14.43;;;;;;;;;;1598626;89;21079;-77
2022/08/12 11:21:19;;;;;;;31.00;13.10;;;;;;;;;;1602558;89;21131;-77
2022/08/12 11:23:44;;;;;;;30.57;13.53;;;;;;;;;;1602528;89;20959;-77
2022/08/12 11:26:10;;;;;;;35.83;13.28;;;;;;;;;;1602620;89;21013;-79
2022/08/12 11:28:36;;;;;;;26.42;12.07;;;;;;;;;;1602586;88;21661;-76
2022/08/12 11:31:04;;;;;;;33.30;13.32;;;;;;;;;;1618551;88;21014;-77
2022/08/12 11:33:29;;;;;;;28.98;12.55;;;;;;;;;;1622245;88;21139;-78
2022/08/12 11:35:59;;;;;;;24.98;11.93;;;;;;;;;;1612095;87;21700;-77
2022/08/12 11:38:24;;;;;;;25.00;11.53;;;;;;;;;;1616532;86;21671;-75
2022/08/12 11:40:50;;;;;;;24.70;12.60;;;;;;;;;;1649189;86;21176;-79
2022/08/12 11:43:16;;;;;;;40.63;12.98;;;;;;;;;;1649469;87;20945;-81
2022/08/12 11:45:42;;;;;;;28.87;13.48;;;;;;;;;;1648385;86;21951;-79
2022/08/12 11:48:07;;;;;;;41.28;13.18;;;;;;;;;;1645551;86;20984;-82
2022/08/12 11:50:33;;;;;;;43.00;14.15;;;;;;;;;;1647418;85;21057;-78
2022/08/12 11:52:59;;;;;;;42.08;14.30;;;;;;;;;;1650831;86;21042;-81
2022/08/12 11:55:25;;;;;;;38.90;13.18;;;;;;;;;;1628222;86;20963;-81
2022/08/12 11:57:55;;;;;;;32.63;12.78;;;;;;;;;;1655587;84;21184;-82
2022/08/12 12:00:21;;;;;;;38.70;12.85;;;;;;;;;;1678193;85;21084;-81
2022/08/12 12:02:48;;;;;;;26.52;11.38;;;;;;;;;;1678286;85;21047;-81
2022/08/12 12:05:15;;;;;;;30.97;12.07;;;;;;;;;;1678312;85;21672;-81
2022/08/12 12:07:43;;;;;;;24.50;10.95;;;;;;;;;;1678074;85;21016;-81
2022/08/12 12:10:10;;;;;;;23.73;10.68;;;;;;;;;;1618048;88;21110;-81
2022/08/12 12:12:36;;;;;;;24.02;10.38;;;;;;;;;;1617983;88;21075;-81
2022/08/12 12:15:04;;;;;;;26.77;8.93;;;;;;;;;;1623107;86;21750;-81
2022/08/12 12:17:29;;;;;;;25.50;8.70;;;;;;;;;;1657550;85;21581;-81
2022/08/12 12:19:55;;;;;;;30.70;9.40;;;;;;;;;;1635590;86;21489;-81
2022/08/12 12:22:21;;;;;;;33.40;8.48;;;;;;;;;;1657975;86;21264;-82
2022/08/12 12:24:47;;;;;;;34.85;9.25;;;;;;;;;;1635149;86;20945;-80
2022/08/12 12:27:17;;;;;;;34.18;9.73;;;;;;;;;;1657594;86;21067;-80
2022/08/12 12:29:43;;;;;;;21.23;8.25;;;;;;;;;;1588659;89;21181;-80
2022/08/12 12:32:08;;;;;;;19.12;8.18;;;;;;;;;;1564015;90;21771;-80
2022/08/12 12:34:34;;;;;;;24.85;7.92;;;;;;;;;;1584750;89;21121;-79
2022/08/12 12:37:00;;;;;;;22.40;8.78;;;;;;;;;;1584240;89;21133;-79
2022/08/12 12:39:26;;;;;;;17.73;7.65;;;;;;;;;;1584480;89;20986;-79
2022/08/12 12:41:51;;;;;;;22.17;8.05;;;;;;;;;;1608793;87;21021;-80
2022/08/12 12:44:17;;;;;;;22.58;9.15;;;;;;;;;;1632417;87;20964;-78
2022/08/12 12:46:43;;;;;;;18.25;7.90;;;;;;;;;;1636230;87;21876;-80
2022/08/12 12:49:09;;;;;;;16.10;7.60;;;;;;;;;;1640024;86;20942;-79
2022/08/12 12:51:34;;;;;;;21.75;8.43;;;;;;;;;;1639795;86;20938;-79
2022/08/12 12:54:00;;;;;;;18.48;7.95;;;;;;;;;;1639727;86;20975;-82
2022/08/12 12:56:27;;;;;;;19.37;7.70;;;;;;;;;;1607172;88;21126;-80
2022/08/12 12:58:53;;;;;;;26.40;8.43;;;;;;;;;;1594914;88;21112;-81
2022/08/12 13:01:24;;;;;;;24.27;8.23;;;;;;;;;;1606860;88;21211;-82
2022/08/12 13:03:52;;;;;;;20.68;6.83;;;;;;;;;;1610034;88;21154;-81
2022/08/12 13:06:16;;;;;;;16.32;8.15;;;;;;;;;;1617779;86;21130;-81
2022/08/12 13:08:42;;;;;;;19.17;7.55;;;;;;;;;;1666377;85;20888;-81
2022/08/12 13:11:08;;;;;;;25.37;7.60;;;;;;;;;;1678361;85;21081;-80
2022/08/12 13:13:35;;;;;;;17.15;7.90;;;;;;;;;;1679444;85;21766;-82
2022/08/12 13:16:03;;;;;;;22.62;7.60;;;;;;;;;;1651997;86;21090;-81
2022/08/12 13:18:39;;;;;;;32.55;9.40;;;;;;;;;;1661122;85;21600;-80
2022/08/12 13:21:07;;;;;;;18.80;8.08;;;;;;;;;;1563756;91;20986;-83
2022/08/12 13:23:34;;;;;;;23.77;7.67;;;;;;;;;;1552831;91;21938;-81
2022/08/12 13:26:00;;;;;;;19.80;7.45;;;;;;;;;;1544872;91;21094;-89
2022/08/12 13:28:29;;;;;;;20.68;7.78;;;;;;;;;;1561308;90;21060;-80
2022/08/12 13:30:58;;;;;;;20.90;7.58;;;;;;;;;;1567729;89;21097;-82
2022/08/12 13:33:26;;;;;;;19.90;7.85;;;;;;;;;;1573335;89;21105;-83
2022/08/12 13:35:53;;;;;;;14.83;6.87;;;;;;;;;;1550372;90;21125;-82
2022/08/12 13:38:25;;;;;;;15.40;6.92;;;;;;;;;;1545969;91;21141;-81
2022/08/12 13:40:51;;;;;;;16.37;7.05;;;;;;;;;;1541865;91;22162;-82
2022/08/12 13:43:16;;;;;;;21.75;6.33;;;;;;;;;;1542686;91;21060;-84
2022/08/12 13:45:42;;;;;;;27.82;6.65;;;;;;;;;;1549207;90;20880;-85
2022/08/12 13:48:11;;;;;;;28.45;7.72;;;;;;;;;;1564230;90;22049;-82
2022/08/12 13:50:42;;;;;;;19.60;7.33;;;;;;;;;;1547525;90;21598;-84
2022/08/12 13:53:12;;;;;;;21.87;6.87;;;;;;;;;;1616304;88;21483;-82
2022/08/12 13:55:44;;;;;;;22.25;6.80;;;;;;;;;;1686280;84;22224;-84
2022/08/12 13:58:10;;;;;;;21.35;7.28;;;;;;;;;;1683057;84;21042;-84
2022/08/12 14:00:35;;;;;;;20.32;6.95;;;;;;;;;;1686323;84;21697;-81
2022/08/12 14:03:01;;;;;;;22.93;7.17;;;;;;;;;;1686431;84;20880;-81
2022/08/12 14:05:28;;;;;;;21.23;7.62;;;;;;;;;;1686654;84;21660;-85
2022/08/12 14:07:56;;;;;;;26.07;7.90;;;;;;;;;;1686439;84;21078;-84
2022/08/12 14:10:35;;;;;;;18.65;7.25;;;;;;;;;;1689654;80;21024;-83
2022/08/12 14:13:09;;;;;;;17.23;7.05;;;;;;;;;;1707634;83;21215;-78
2022/08/12 14:15:37;;;;;;;24.72;7.05;;;;;;;;;;1694486;83;21984;-82
2022/08/12 14:18:14;;;;;;;22.98;6.65;;;;;;;;;;1679551;83;21081;-81
2022/08/12 14:20:42;;;;;;;15.18;5.72;;;;;;;;;;1674975;83;21038;-82
2022/08/12 14:23:08;;;;;;;12.58;5.65;;;;;;;;;;1691364;83;21082;-80
2022/08/12 14:25:34;;;;;;;14.30;5.28;;;;;;;;;;1690347;83;21123;-84
2022/08/12 14:28:10;;;;;;;12.95;5.20;;;;;;;;;;1670540;83;20902;-81
2022/08/12 14:30:52;;;;;;;9.40;5.22;;;;;;;;;;1690345;83;21110;-82
2022/08/12 14:33:20;;;;;;;13.72;5.60;;;;;;;;;;1618176;88;21178;-80
2022/08/12 14:35:47;;;;;;;11.53;4.75;;;;;;;;;;1631611;87;21171;-80
2022/08/12 14:38:15;;;;;;;9.88;5.55;;;;;;;;;;1622491;87;21871;-80
2022/08/12 14:40:41;;;;;;;12.13;4.97;;;;;;;;;;1620724;88;21684;-82
2022/08/12 14:43:06;;;;;;;14.10;5.33;;;;;;;;;;1620597;88;21049;-82
2022/08/12 14:45:35;;;;;;;15.95;5.62;;;;;;;;;;1620728;88;20942;-81
2022/08/12 14:48:00;;;;;;;12.50;5.55;;;;;;;;;;1620316;88;21774;-81
2022/08/12 14:50:26;;;;;;;14.75;5.85;;;;;;;;;;1645802;85;21516;-82
2022/08/12 14:52:52;;;;;;;15.88;5.65;;;;;;;;;;1705642;83;20898;-82
2022/08/12 14:55:18;;;;;;;24.00;5.87;;;;;;;;;;1705500;83;21322;-80
2022/08/12 15:03:08;;;;;;;24.23;6.10;;;;;;;;;;1605739;88;21108;-81
2022/08/12 15:05:37;;;;;;;18.50;6.20;;;;;;;;;;1606016;89;20992;-80
2022/08/12 15:08:12;;;;;;;24.85;6.08;;;;;;;;;;1605930;89;21614;-80
2022/08/12 15:10:40;;;;;;;21.40;6.25;;;;;;;;;;1605766;89;21444;-78
2022/08/12 15:13:07;;;;;;;13.78;5.65;;;;;;;;;;1595179;89;21039;-81
2022/08/12 15:15:36;;;;;;;16.12;6.62;;;;;;;;;;1607429;89;21437;-79
2022/08/12 15:18:01;;;;;;;19.48;5.75;;;;;;;;;;1609473;87;21666;-79
2022/08/12 15:20:33;;;;;;;13.00;5.70;;;;;;;;;;1609992;88;20911;-81
2022/08/12 15:22:59;;;;;;;14.73;5.50;;;;;;;;;;1610461;88;21081;-80
2022/08/12 15:25:27;;;;;;;14.63;6.10;;;;;;;;;;1610156;89;21228;-81
2022/08/12 15:27:53;;;;;;;15.28;6.05;;;;;;;;;;1584708;90;21180;-81
2022/08/12 15:30:23;;;;;;;32.15;6.92;;;;;;;;;;1575188;89;21124;-82
2022/08/12 15:32:52;;;;;;;21.45;6.30;;;;;;;;;;1587057;90;21109;-81
2022/08/12 15:35:26;;;;;;;14.85;5.80;;;;;;;;;;1586742;90;21170;-87
2022/08/12 15:38:01;;;;;;;18.25;5.80;;;;;;;;;;1545881;92;21060;-85
2022/08/12 15:40:30;;;;;;;21.33;6.45;;;;;;;;;;1545843;92;22375;-85
2022/08/12 15:42:58;;;;;;;20.35;7.05;;;;;;;;;;1522280;94;21083;-84
2022/08/12 15:45:25;;;;;;;16.02;5.95;;;;;;;;;;1522374;94;21126;-85
2022/08/12 15:47:51;;;;;;;23.25;6.47;;;;;;;;;;1522360;92;21119;-84
2022/08/12 15:50:22;;;;;;;17.82;6.42;;;;;;;;;;1522633;94;21083;-86
2022/08/12 15:52:49;;;;;;;34.13;7.62;;;;;;;;;;1522588;94;21165;-86
2022/08/12 15:55:15;;;;;;;19.82;6.55;;;;;;;;;;1522724;94;21194;-84
2022/08/12 15:57:52;;;;;;;18.82;7.55;;;;;;;;;;1571033;90;21035;-83
2022/08/12 16:00:17;;;;;;;20.62;8.55;;;;;;;;;;1582724;90;21253;-83
2022/08/12 16:02:45;;;;;;;26.30;9.20;;;;;;;;;;1583482;90;21106;-84
2022/08/12 16:05:12;;;;;;;47.33;8.23;;;;;;;;;;1583189;90;21132;-84
2022/08/12 16:07:38;;;;;;;50.30;7.67;;;;;;;;;;1582898;89;21166;-83
2022/08/12 16:10:06;;;;;;;42.43;9.58;;;;;;;;;;1582182;90;21075;-84
2022/08/12 16:12:33;;;;;;;38.63;9.00;;;;;;;;;;1580686;90;21145;-86
2022/08/12 16:15:00;;;;;;;29.42;9.38;;;;;;;;;;1579184;90;21766;-83
2022/08/12 16:17:26;;;;;;;33.18;10.68;;;;;;;;;;1580310;90;21132;-85
2022/08/12 16:19:52;;;;;;;23.77;10.40;;;;;;;;;;1581124;90;21058;-85
2022/08/12 16:22:21;;;;;;;21.07;8.08;;;;;;;;;;1580914;89;20986;-82
2022/08/12 16:24:46;;;;;;;28.17;8.50;;;;;;;;;;1581268;90;21118;-80
2022/08/12 16:27:12;;;;;;;29.90;7.62;;;;;;;;;;1552920;92;21022;-81
2022/08/12 16:29:41;;;;;;;20.97;7.00;;;;;;;;;;1582279;90;21890;-80
2022/08/12 16:32:07;;;;;;;30.57;7.83;;;;;;;;;;1550902;91;21091;-83
2022/08/12 16:34:38;;;;;;;20.48;7.87;;;;;;;;;;1618080;86;21026;-83
2022/08/12 16:37:06;;;;;;;35.23;9.38;;;;;;;;;;1658366;86;21218;-78
2022/08/12 16:39:34;;;;;;;22.67;7.92;;;;;;;;;;1692781;82;21554;-81
2022/08/12 16:42:01;;;;;;;25.32;7.45;;;;;;;;;;1748122;82;21114;-79
2022/08/12 16:44:28;;;;;;;19.62;7.75;;;;;;;;;;1678503;84;21077;-80
2022/08/12 16:46:58;;;;;;;23.98;7.17;;;;;;;;;;1678117;84;21102;-81
2022/08/12 16:49:24;;;;;;;21.40;7.45;;;;;;;;;;1678518;84;21107;-82
2022/08/12 16:51:54;;;;;;;25.02;7.60;;;;;;;;;;1679557;84;21669;-81
2022/08/12 16:54:21;;;;;;;26.05;8.75;;;;;;;;;;1698049;84;21519;-80
2022/08/12 16:56:53;;;;;;;21.68;7.62;;;;;;;;;;1700191;84;21030;-81
2022/08/12 16:59:18;;;;;;;25.30;8.73;;;;;;;;;;1698590;84;21028;-82
2022/08/12 17:01:44;;;;;;;23.45;6.83;;;;;;;;;;1673657;84;21146;-84
2022/08/12 17:04:10;;;;;;;18.70;7.08;;;;;;;;;;1700585;84;21095;-81
2022/08/12 17:09:06;;;;;;;16.50;6.75;;;;;;;;;;1655380;85;21092;-82
2022/08/12 17:11:32;;;;;;;17.87;7.08;;;;;;;;;;1653933;85;21675;-81
2022/08/12 17:14:00;;;;;;;23.50;6.87;;;;;;;;;;1655857;86;21503;-79
2022/08/12 17:16:26;;;;;;;15.60;6.80;;;;;;;;;;1650059;86;21114;-81
2022/08/12 17:18:52;;;;;;;16.50;7.10;;;;;;;;;;1647661;86;21165;-80
2022/08/12 17:21:18;;;;;;;18.73;8.10;;;;;;;;;;1640676;86;20975;-81
2022/08/12 17:23:49;;;;;;;15.88;7.08;;;;;;;;;;1654146;86;21169;-82
2022/08/12 17:26:17;;;;;;;17.32;6.62;;;;;;;;;;1649666;86;21083;-82
2022/08/12 17:28:45;;;;;;;18.17;6.50;;;;;;;;;;1652672;86;21150;-80
2022/08/12 17:31:12;;;;;;;13.98;6.60;;;;;;;;;;1644196;84;21833;-78
2022/08/12 17:33:38;;;;;;;16.23;6.47;;;;;;;;;;1625707;88;21087;-82
2022/08/12 17:36:04;;;;;;;26.00;7.50;;;;;;;;;;1625753;88;21258;-80
2022/08/12 17:38:33;;;;;;;20.55;7.08;;;;;;;;;;1625520;88;21101;-79
2022/08/12 17:40:59;;;;;;;16.60;6.92;;;;;;;;;;1645889;83;21316;-81
2022/08/12 17:43:25;;;;;;;15.18;6.25;;;;;;;;;;1697118;83;21079;-79
2022/08/12 17:45:52;;;;;;;15.93;6.03;;;;;;;;;;1700969;83;21529;-85
2022/08/12 17:48:20;;;;;;;16.87;6.85;;;;;;;;;;1693760;83;21583;-81
2022/08/12 17:50:48;;;;;;;22.22;7.60;;;;;;;;;;1693880;83;21019;-82
2022/08/12 17:53:18;;;;;;;29.98;7.17;;;;;;;;;;1694921;83;21066;-81
2022/08/12 17:55:51;;;;;;;43.95;8.40;;;;;;;;;;1670100;84;22710;-76
2022/08/12 17:58:22;;;;;;;24.12;7.70;;;;;;;;;;1699602;83;21050;-80
2022/08/12 18:00:49;;;;;;;14.55;6.95;;;;;;;;;;1693420;83;21444;-80
2022/08/12 18:03:15;;;;;;;19.00;7.47;;;;;;;;;;1699579;83;21106;-80
2022/08/12 18:05:41;;;;;;;22.22;7.62;;;;;;;;;;1691767;83;21629;-82
2022/08/12 18:08:09;;;;;;;18.65;6.80;;;;;;;;;;1694719;83;21048;-82
2022/08/12 18:13:25;;;;;;;18.73;7.00;;;;;;;;;;1744881;81;21129;-83
2022/08/12 18:15:48;;;;;;;17.85;6.42;;;;;;;;;;1749519;81;21252;-86
2022/08/12 18:18:15;;;;;;;15.28;5.78;;;;;;;;;;1746413;81;20918;-82
2022/08/12 18:20:41;;;;;;;26.30;7.67;;;;;;;;;;1754042;81;21857;-81
2022/08/12 18:23:09;;;;;;;17.65;6.22;;;;;;;;;;1750766;80;20864;-82
2022/08/12 18:28:20;;;;;;;14.98;6.33;;;;;;;;;;1745700;81;21054;-82
2022/08/12 18:30:49;;;;;;;20.20;6.67;;;;;;;;;;1743929;80;20968;-82
2022/08/12 18:33:17;;;;;;;16.15;5.92;;;;;;;;;;1736129;82;21493;-82
2022/08/12 18:35:43;;;;;;;20.82;7.17;;;;;;;;;;1712782;83;21095;-81
2022/08/12 18:38:09;;;;;;;15.45;6.58;;;;;;;;;;1697612;82;20994;-81
2022/08/12 18:43:21;;;;;;;15.93;7.05;;;;;;;;;;1730782;82;21063;-80
2022/08/12 18:45:50;;;;;;;19.55;6.92;;;;;;;;;;1712788;82;21307;-80
2022/08/12 18:48:19;;;;;;;12.82;6.17;;;;;;;;;;1741172;82;21078;-82
2022/08/12 18:50:49;;;;;;;15.15;6.22;;;;;;;;;;1730670;82;21125;-81
2022/08/12 18:53:14;;;;;;;26.70;7.70;;;;;;;;;;1726358;82;21086;-82
2022/08/12 18:55:40;;;;;;;22.50;7.10;;;;;;;;;;1724195;82;21456;-81
2022/08/12 18:58:08;;;;;;;25.70;7.35;;;;;;;;;;1738904;82;21040;-80
2022/08/12 19:00:35;;;;;;;20.35;7.10;;;;;;;;;;1727859;82;21050;-81
2022/08/12 19:03:05;;;;;;;25.92;7.70;;;;;;;;;;1729062;82;20996;-81
2022/08/12 19:05:29;;;;;;;23.65;8.58;;;;;;;;;;1709803;82;21027;-80
2022/08/12 19:07:57;;;;;;;23.50;8.23;;;;;;;;;;1745455;82;21558;-80
2022/08/12 19:10:22;;;;;;;19.65;7.70;;;;;;;;;;1732116;82;21111;-82
2022/08/12 19:15:34;;;;;;;19.65;6.87;;;;;;;;;;1725051;82;22010;-81
2022/08/12 19:18:01;;;;;;;18.02;6.97;;;;;;;;;;1733613;82;21065;-78
2022/08/12 19:20:28;;;;;;;16.42;6.45;;;;;;;;;;1705674;82;21051;-80
2022/08/12 19:22:54;;;;;;;20.08;6.87;;;;;;;;;;1727689;82;21182;-80
2022/08/12 19:25:24;;;;;;;18.95;6.53;;;;;;;;;;1727920;82;20945;-81
2022/08/12 19:33:12;;;;;;;17.85;5.95;;;;;;;;;;1679510;83;21038;-79
2022/08/12 19:35:40;;;;;;;18.07;5.75;;;;;;;;;;1674369;85;21148;-81
2022/08/12 19:38:14;;;;;;;18.82;5.87;;;;;;;;;;1671712;83;22588;-80
2022/08/12 19:40:39;;;;;;;14.13;5.42;;;;;;;;;;1674993;83;21064;-82
2022/08/12 19:45:40;;;;;;;17.37;5.90;;;;;;;;;;1634075;87;21048;-84
2022/08/12 19:48:09;;;;;;;18.80;6.17;;;;;;;;;;1629101;87;21603;-80
2022/08/12 19:50:36;;;;;;;12.55;5.65;;;;;;;;;;1568589;91;21329;-80
2022/08/12 19:53:02;;;;;;;20.20;6.85;;;;;;;;;;1570718;91;21114;-81
2022/08/12 19:55:30;;;;;;;21.05;7.33;;;;;;;;;;1569567;91;21130;-80
2022/08/12 19:57:57;;;;;;;25.25;6.87;;;;;;;;;;1570057;91;21703;-80
2022/08/12 20:00:24;;;;;;;22.95;6.72;;;;;;;;;;1564366;91;21274;-79
2022/08/12 20:02:59;;;;;;;19.23;6.53;;;;;;;;;;1572030;91;21094;-80
2022/08/12 20:05:18;;;;;;;18.27;6.50;;;;;;;;;;1570677;91;21086;-80
2022/08/12 20:07:45;;;;;;;20.90;6.78;;;;;;;;;;1572474;91;21015;-80
2022/08/12 20:10:15;;;;;;;17.35;6.40;;;;;;;;;;1560821;91;21094;-80
2022/08/12 20:12:41;;;;;;;19.73;6.65;;;;;;;;;;1555152;91;21701;-80
2022/08/12 20:15:09;;;;;;;23.98;7.53;;;;;;;;;;1555332;92;20968;-81
2022/08/12 20:17:35;;;;;;;18.82;6.03;;;;;;;;;;1555086;92;21089;-81
2022/08/12 20:20:01;;;;;;;22.02;7.03;;;;;;;;;;1555314;92;21138;-80
2022/08/12 20:22:28;;;;;;;20.17;6.25;;;;;;;;;;1555503;89;21112;-80
2022/08/12 20:24:53;;;;;;;16.15;6.90;;;;;;;;;;1555311;92;21926;-80
2022/08/12 20:27:21;;;;;;;20.05;6.92;;;;;;;;;;1558071;91;21016;-80
2022/08/12 20:29:47;;;;;;;14.90;6.08;;;;;;;;;;1560045;92;21101;-80
2022/08/12 20:32:13;;;;;;;18.12;6.20;;;;;;;;;;1579568;89;21086;-81
2022/08/12 20:34:41;;;;;;;16.75;6.37;;;;;;;;;;1599863;89;21052;-81
2022/08/12 20:37:09;;;;;;;15.43;6.35;;;;;;;;;;1599966;89;21221;-80
2022/08/12 20:39:36;;;;;;;22.62;7.42;;;;;;;;;;1600078;89;21111;-80
2022/08/12 20:42:04;;;;;;;23.70;6.97;;;;;;;;;;1628607;85;21051;-81
2022/08/12 20:44:38;;;;;;;14.13;6.33;;;;;;;;;;1685868;85;21003;-81
2022/08/12 20:47:07;;;;;;;17.12;6.53;;;;;;;;;;1718462;80;20995;-81
2022/08/12 20:49:38;;;;;;;19.62;6.10;;;;;;;;;;1785018;80;21199;-80